Artemisa, Cuba

2:05 AM CST on January 31, 2015 (GMT -0500)
Jose Marti International | Change Station
CLOSE
Current Station
Airport
Location: Havana,
Elevation: 246 ft
Nearby Weather Stations

Elev 246 ft 22.99 °N, 82.41 °W | Updated 10 minutes ago

Fog
Fog
50 °F
Feels Like 50 °F
N
2
Wind Variable Wind from SW

Today
High -- | Low -- °F
--% Chance of Precip.
Yesterday
High -- | Low -- °F
Precip. -- in
7:10 AM 6:18 PM
Waxing Gibbous, 88% visible
Pressure 30.15 in
Visibility 3.1 miles
Clouds Few 2500 ft
Dew Point 46 °F
Humidity 87%
Rainfall 0.00 in
Snow Depth Not available.
UV 0 out of 12
Pollen Not available.
Air Quality Not available.
Flu Activity Not available.
METAR MUHA 310655Z 22002KT 5000 PRFG FEW025 10/08 Q1021

More Conditions Fewer Conditions

Pressure 30.15 in
Visibility 3.1 miles
Clouds Few 2500 ft
Dew Point 46 °F
Humidity 87%
Rainfall 0.00 in
Snow Depth Not available.
UV 0 out of 12
Pollen Not available.
Air Quality Not available.
Flu Activity Not available.
METAR MUHA 310655Z 22002KT 5000 PRFG FEW025 10/08 Q1021

More Conditions Fewer Conditions

10-Day Weather Forecast

Almanac

Astronomy

Jan. 31, 2015 Rise Set
Actual Time
Civil Twilight
Nautical Twilight
Astronomical Twilight
Moon
Length of Visible Light
Length of Day
Tomorrow will be .
, % of the Moon is Illuminated

Today's Extremes

Country Highs Country Lows

Community

WunderPhotos

Upload Photos

1,792,014 photos uploaded!

WunderBlogs® & News

Nearby

Air Quality

  Air Quality AQ Index Pollutant
Not available.

Snow Depth

Station Depth Elevation

Earthquake Activity

City Distance Mag. Time & Date
Minimum magnitude displayed is 2.5.

Coastal Water Temperatures

Place Temperature

Nearby Weather Stations